Aérodrome :
LOGIN :

S'inscrire | Disclaimer

   EN    FR    IT 

 










Légende :    VFR   VFR Marginal   IFR   IFR Intensif   IFR Très Intensif
Visi : 
Plafond : 
>= 8 km
>= 3000ft
5 à 8 km
1000 à 3000 ft
1500m à 5 km
500 à 1000 ft
800 à 1500m
200 à 500 ft
< 800m
< 200 ft
Symboles :   Orages  Brouillard  Fortes neiges  Fortes précipitations  Vent > 20 kt
SIGMETs :   Divers  Orages  Givrage  Turbulence  Onde Orograph.  Cendres Volcan.






- Altitude de l'aérodrome : 129 ft
- Code IATA : ZCN


ETHC - Celle

DERNIER METAR :
  • 241120Z 18011KT 9999 FEW025 SCT040 BKN220 08/02 Q1000 BLU+

METARs EXPIRÉS :
  • 241020Z 22010KT 9999 FEW025 SCT100 BKN220 08/02 Q0999 BLU+
  • 240920Z 21008KT 9999 FEW040 SCT120 BKN200 08/02 Q0999 BLU+
  • 240820Z 18006KT 9999 SCT060 SCT200 05/01 Q0999 BLU+
  • 240720Z 18003KT 9999 SCT060 SCT220 02/M00 Q0998 BLU+

Prévision TAF périmée.



MET'MAP, la Météo Aéronautique d'un coup d'oeil ! - Copyright ORBIFLY Décembre 2007 - Disclaimer

ORBIFLY MET'MAP TEAM :

Programmation & Développement : Alexandra Zaïnal
Sur une idée originale de : Baudouin d'Aumeries
Soutien technique & logistique : Manuel Goepfert
Assistance : Marc-Olivier Méhu




SOURCES & CREDITS :

   NOAA